Hezuo, China
Current Conditions -  °F | °C
As of 7:00 PM on Friday 24 Oct 2014 (Local Time) from ZLLL Reporting Station
Clear Clear  
Wind Chill: 55°   Ceiling: Unl
Heat Index: 55°   Visibility: 4mi
Dew Point: 32°   Wind: 2mph
Humidity: 41%   Direction: NA
Pressure: 30.09"   Gusts: NA
Location:  35°N, 102.9°E
Report Text: ZLLL 241100Z VRB01MPS 6000 NSC 13/00 Q1019 NOSIG
Loading
Personal Weather Stations






























Interactive Weather Map
Tropical Storm Tracking
New forecast layout! Learn more

10-Day Weather Forecast

Advertisements
Track Severe Weather on mobile